sensor_id;sensor_type;location;lat;lon;timestamp;P1;durP1;ratioP1;P2;durP2;ratioP2
52414;SDS011;38340;52.964;6.086;2024-02-15T00:00:03;50.42;;;22.17;;
52414;SDS011;38340;52.964;6.086;2024-02-15T00:02:29;44.45;;;22.75;;
52414;SDS011;38340;52.964;6.086;2024-02-15T00:04:55;52.53;;;23.08;;
52414;SDS011;38340;52.964;6.086;2024-02-15T00:07:21;51.85;;;21.98;;
52414;SDS011;38340;52.964;6.086;2024-02-15T00:09:48;43.83;;;21.48;;
52414;SDS011;38340;52.964;6.086;2024-02-15T00:12:14;46.78;;;20.45;;
52414;SDS011;38340;52.964;6.086;2024-02-15T00:14:40;45.80;;;21.65;;
52414;SDS011;38340;52.964;6.086;2024-02-15T00:17:05;46.30;;;19.67;;
52414;SDS011;38340;52.964;6.086;2024-02-15T00:19:31;41.28;;;19.77;;
52414;SDS011;38340;52.964;6.086;2024-02-15T00:21:57;38.83;;;18.70;;
52414;SDS011;38340;52.964;6.086;2024-02-15T00:24:22;39.65;;;19.42;;
52414;SDS011;38340;52.964;6.086;2024-02-15T00:26:49;37.30;;;19.98;;
52414;SDS011;38340;52.964;6.086;2024-02-15T00:29:15;44.50;;;19.25;;
52414;SDS011;38340;52.964;6.086;2024-02-15T00:31:40;44.20;;;18.77;;
52414;SDS011;38340;52.964;6.086;2024-02-15T00:34:06;40.33;;;18.63;;
52414;SDS011;38340;52.964;6.086;2024-02-15T00:36:32;38.15;;;18.35;;
52414;SDS011;38340;52.964;6.086;2024-02-15T00:38:58;39.15;;;18.27;;
52414;SDS011;38340;52.964;6.086;2024-02-15T00:41:24;37.60;;;18.73;;
52414;SDS011;38340;52.964;6.086;2024-02-15T00:43:50;38.30;;;18.23;;
52414;SDS011;38340;52.964;6.086;2024-02-15T00:46:16;30.67;;;17.38;;
52414;SDS011;38340;52.964;6.086;2024-02-15T00:48:42;35.92;;;17.83;;
52414;SDS011;38340;52.964;6.086;2024-02-15T00:51:07;27.42;;;16.23;;
52414;SDS011;38340;52.964;6.086;2024-02-15T00:53:33;32.25;;;17.73;;
52414;SDS011;38340;52.964;6.086;2024-02-15T00:55:59;39.17;;;18.52;;
52414;SDS011;38340;52.964;6.086;2024-02-15T00:58:25;31.95;;;15.38;;
52414;SDS011;38340;52.964;6.086;2024-02-15T01:00:52;34.53;;;16.63;;
52414;SDS011;38340;52.964;6.086;2024-02-15T01:03:20;38.00;;;16.33;;
52414;SDS011;38340;52.964;6.086;2024-02-15T01:05:47;32.90;;;15.02;;
52414;SDS011;38340;52.964;6.086;2024-02-15T01:08:13;30.08;;;14.98;;
52414;SDS011;38340;52.964;6.086;2024-02-15T01:10:39;32.22;;;13.85;;
52414;SDS011;38340;52.964;6.086;2024-02-15T01:13:05;27.05;;;13.18;;
52414;SDS011;38340;52.964;6.086;2024-02-15T01:15:31;34.15;;;13.63;;
52414;SDS011;38340;52.964;6.086;2024-02-15T01:17:57;35.83;;;15.23;;
52414;SDS011;38340;52.964;6.086;2024-02-15T01:20:22;30.48;;;13.73;;
52414;SDS011;38340;52.964;6.086;2024-02-15T01:22:48;27.85;;;12.85;;
52414;SDS011;38340;52.964;6.086;2024-02-15T01:25:15;30.90;;;11.55;;
52414;SDS011;38340;52.964;6.086;2024-02-15T01:27:42;31.05;;;13.45;;
52414;SDS011;38340;52.964;6.086;2024-02-15T01:30:07;25.75;;;12.00;;
52414;SDS011;38340;52.964;6.086;2024-02-15T01:32:34;24.98;;;11.63;;
52414;SDS011;38340;52.964;6.086;2024-02-15T01:34:59;21.98;;;11.30;;
52414;SDS011;38340;52.964;6.086;2024-02-15T01:37:25;20.33;;;11.05;;
52414;SDS011;38340;52.964;6.086;2024-02-15T01:39:51;26.13;;;10.95;;
52414;SDS011;38340;52.964;6.086;2024-02-15T01:42:17;16.10;;;9.70;;
52414;SDS011;38340;52.964;6.086;2024-02-15T01:44:43;23.50;;;9.25;;
52414;SDS011;38340;52.964;6.086;2024-02-15T01:47:10;19.38;;;9.98;;
52414;SDS011;38340;52.964;6.086;2024-02-15T01:49:36;18.48;;;9.07;;
52414;SDS011;38340;52.964;6.086;2024-02-15T01:52:02;20.38;;;9.10;;
52414;SDS011;38340;52.964;6.086;2024-02-15T01:54:30;21.42;;;8.88;;
52414;SDS011;38340;52.964;6.086;2024-02-15T01:56:57;13.25;;;8.00;;
52414;SDS011;38340;52.964;6.086;2024-02-15T01:59:23;21.00;;;8.07;;
52414;SDS011;38340;52.964;6.086;2024-02-15T02:01:50;15.75;;;8.80;;
52414;SDS011;38340;52.964;6.086;2024-02-15T02:04:16;22.58;;;9.35;;
52414;SDS011;38340;52.964;6.086;2024-02-15T02:06:42;20.60;;;9.70;;
52414;SDS011;38340;52.964;6.086;2024-02-15T02:09:11;18.17;;;9.88;;
52414;SDS011;38340;52.964;6.086;2024-02-15T02:11:46;22.20;;;9.70;;
52414;SDS011;38340;52.964;6.086;2024-02-15T02:14:13;20.77;;;9.93;;
52414;SDS011;38340;52.964;6.086;2024-02-15T02:16:39;19.08;;;9.88;;
52414;SDS011;38340;52.964;6.086;2024-02-15T02:19:04;20.75;;;10.23;;
52414;SDS011;38340;52.964;6.086;2024-02-15T02:21:34;37.15;;;11.70;;
52414;SDS011;38340;52.964;6.086;2024-02-15T02:24:02;19.88;;;11.05;;
52414;SDS011;38340;52.964;6.086;2024-02-15T02:26:33;23.50;;;11.00;;
52414;SDS011;38340;52.964;6.086;2024-02-15T02:29:02;23.30;;;10.90;;
52414;SDS011;38340;52.964;6.086;2024-02-15T02:31:35;35.25;;;13.50;;
52414;SDS011;38340;52.964;6.086;2024-02-15T02:34:01;27.55;;;13.18;;
52414;SDS011;38340;52.964;6.086;2024-02-15T02:36:27;29.60;;;12.88;;
52414;SDS011;38340;52.964;6.086;2024-02-15T02:38:54;32.47;;;15.00;;
52414;SDS011;38340;52.964;6.086;2024-02-15T02:41:20;28.05;;;12.25;;
52414;SDS011;38340;52.964;6.086;2024-02-15T02:43:46;30.13;;;13.55;;
52414;SDS011;38340;52.964;6.086;2024-02-15T02:46:12;33.28;;;14.10;;
52414;SDS011;38340;52.964;6.086;2024-02-15T02:48:38;30.98;;;13.27;;
52414;SDS011;38340;52.964;6.086;2024-02-15T02:51:05;29.60;;;13.27;;
52414;SDS011;38340;52.964;6.086;2024-02-15T02:53:32;31.77;;;12.27;;
52414;SDS011;38340;52.964;6.086;2024-02-15T02:55:57;27.98;;;11.65;;
52414;SDS011;38340;52.964;6.086;2024-02-15T02:58:23;30.45;;;11.77;;
52414;SDS011;38340;52.964;6.086;2024-02-15T03:00:49;34.38;;;12.52;;
52414;SDS011;38340;52.964;6.086;2024-02-15T03:03:15;31.83;;;12.02;;
52414;SDS011;38340;52.964;6.086;2024-02-15T03:05:41;28.73;;;12.18;;
52414;SDS011;38340;52.964;6.086;2024-02-15T03:08:13;29.50;;;12.93;;
52414;SDS011;38340;52.964;6.086;2024-02-15T03:10:39;35.33;;;11.40;;
52414;SDS011;38340;52.964;6.086;2024-02-15T03:13:06;31.58;;;13.80;;
52414;SDS011;38340;52.964;6.086;2024-02-15T03:15:34;36.35;;;13.73;;
52414;SDS011;38340;52.964;6.086;2024-02-15T03:18:03;40.05;;;14.85;;
52414;SDS011;38340;52.964;6.086;2024-02-15T03:20:33;35.95;;;14.57;;
52414;SDS011;38340;52.964;6.086;2024-02-15T03:23:02;32.70;;;13.98;;
52414;SDS011;38340;52.964;6.086;2024-02-15T03:25:28;26.92;;;13.80;;
52414;SDS011;38340;52.964;6.086;2024-02-15T03:27:55;34.13;;;14.15;;
52414;SDS011;38340;52.964;6.086;2024-02-15T03:30:22;34.45;;;14.45;;
52414;SDS011;38340;52.964;6.086;2024-02-15T03:32:49;31.10;;;13.45;;
52414;SDS011;38340;52.964;6.086;2024-02-15T03:35:19;30.48;;;14.00;;
52414;SDS011;38340;52.964;6.086;2024-02-15T03:37:47;24.83;;;13.73;;
52414;SDS011;38340;52.964;6.086;2024-02-15T03:40:16;32.78;;;13.20;;
52414;SDS011;38340;52.964;6.086;2024-02-15T03:42:43;33.13;;;12.98;;
52414;SDS011;38340;52.964;6.086;2024-02-15T03:45:08;30.95;;;14.25;;
52414;SDS011;38340;52.964;6.086;2024-02-15T03:47:36;25.65;;;13.13;;
52414;SDS011;38340;52.964;6.086;2024-02-15T03:50:05;34.50;;;13.98;;
52414;SDS011;38340;52.964;6.086;2024-02-15T03:52:33;36.80;;;14.40;;
52414;SDS011;38340;52.964;6.086;2024-02-15T03:54:59;27.77;;;13.88;;
52414;SDS011;38340;52.964;6.086;2024-02-15T03:57:28;32.00;;;13.52;;
52414;SDS011;38340;52.964;6.086;2024-02-15T03:59:54;30.23;;;14.43;;
52414;SDS011;38340;52.964;6.086;2024-02-15T04:02:22;30.42;;;14.02;;
52414;SDS011;38340;52.964;6.086;2024-02-15T04:04:53;29.85;;;14.80;;
52414;SDS011;38340;52.964;6.086;2024-02-15T04:07:20;36.67;;;14.98;;
52414;SDS011;38340;52.964;6.086;2024-02-15T04:09:47;28.90;;;14.45;;
52414;SDS011;38340;52.964;6.086;2024-02-15T04:12:13;31.70;;;15.35;;
52414;SDS011;38340;52.964;6.086;2024-02-15T04:14:45;37.25;;;17.48;;
52414;SDS011;38340;52.964;6.086;2024-02-15T04:17:11;27.40;;;15.07;;
52414;SDS011;38340;52.964;6.086;2024-02-15T04:19:46;32.25;;;15.85;;
52414;SDS011;38340;52.964;6.086;2024-02-15T04:22:13;36.97;;;16.92;;
52414;SDS011;38340;52.964;6.086;2024-02-15T04:24:41;28.88;;;15.63;;
52414;SDS011;38340;52.964;6.086;2024-02-15T04:27:07;33.55;;;16.67;;
52414;SDS011;38340;52.964;6.086;2024-02-15T04:29:36;31.13;;;16.17;;
52414;SDS011;38340;52.964;6.086;2024-02-15T04:32:05;31.83;;;18.40;;
52414;SDS011;38340;52.964;6.086;2024-02-15T04:34:35;31.15;;;18.10;;
52414;SDS011;38340;52.964;6.086;2024-02-15T04:37:07;36.25;;;17.85;;
52414;SDS011;38340;52.964;6.086;2024-02-15T04:39:36;35.50;;;18.98;;
52414;SDS011;38340;52.964;6.086;2024-02-15T04:42:02;33.45;;;18.88;;
52414;SDS011;38340;52.964;6.086;2024-02-15T04:44:28;41.05;;;19.35;;
52414;SDS011;38340;52.964;6.086;2024-02-15T04:46:54;31.65;;;18.48;;
52414;SDS011;38340;52.964;6.086;2024-02-15T04:49:20;31.95;;;17.95;;
52414;SDS011;38340;52.964;6.086;2024-02-15T04:51:46;31.27;;;18.55;;
52414;SDS011;38340;52.964;6.086;2024-02-15T04:54:15;33.45;;;19.58;;
52414;SDS011;38340;52.964;6.086;2024-02-15T04:56:43;32.25;;;18.70;;
52414;SDS011;38340;52.964;6.086;2024-02-15T04:59:09;35.17;;;18.95;;
52414;SDS011;38340;52.964;6.086;2024-02-15T05:01:40;31.30;;;18.23;;
52414;SDS011;38340;52.964;6.086;2024-02-15T05:04:11;37.33;;;19.27;;
52414;SDS011;38340;52.964;6.086;2024-02-15T05:06:37;36.60;;;19.52;;
52414;SDS011;38340;52.964;6.086;2024-02-15T05:09:03;35.17;;;19.90;;
52414;SDS011;38340;52.964;6.086;2024-02-15T05:11:33;37.05;;;19.98;;
52414;SDS011;38340;52.964;6.086;2024-02-15T05:14:02;35.67;;;19.48;;
52414;SDS011;38340;52.964;6.086;2024-02-15T05:16:30;39.78;;;19.83;;
52414;SDS011;38340;52.964;6.086;2024-02-15T05:18:57;40.55;;;20.42;;
52414;SDS011;38340;52.964;6.086;2024-02-15T05:21:22;38.33;;;20.52;;
52414;SDS011;38340;52.964;6.086;2024-02-15T05:23:48;32.72;;;20.38;;
52414;SDS011;38340;52.964;6.086;2024-02-15T05:26:14;34.70;;;21.20;;
52414;SDS011;38340;52.964;6.086;2024-02-15T05:28:41;42.45;;;22.63;;
52414;SDS011;38340;52.964;6.086;2024-02-15T05:31:09;34.35;;;20.27;;
52414;SDS011;38340;52.964;6.086;2024-02-15T05:33:39;42.67;;;23.38;;
52414;SDS011;38340;52.964;6.086;2024-02-15T05:36:12;35.88;;;22.75;;
52414;SDS011;38340;52.964;6.086;2024-02-15T05:38:39;39.47;;;23.25;;
52414;SDS011;38340;52.964;6.086;2024-02-15T05:41:05;44.55;;;23.90;;
52414;SDS011;38340;52.964;6.086;2024-02-15T05:43:34;41.25;;;23.90;;
52414;SDS011;38340;52.964;6.086;2024-02-15T05:46:03;39.40;;;22.83;;
52414;SDS011;38340;52.964;6.086;2024-02-15T05:48:29;41.13;;;24.15;;
52414;SDS011;38340;52.964;6.086;2024-02-15T05:50:55;44.58;;;24.40;;
52414;SDS011;38340;52.964;6.086;2024-02-15T05:53:22;47.03;;;24.35;;
52414;SDS011;38340;52.964;6.086;2024-02-15T05:55:49;39.83;;;23.45;;
52414;SDS011;38340;52.964;6.086;2024-02-15T05:58:15;44.78;;;24.85;;
52414;SDS011;38340;52.964;6.086;2024-02-15T06:00:41;40.40;;;23.48;;
52414;SDS011;38340;52.964;6.086;2024-02-15T06:03:09;47.75;;;25.17;;
52414;SDS011;38340;52.964;6.086;2024-02-15T06:05:38;42.30;;;24.75;;
52414;SDS011;38340;52.964;6.086;2024-02-15T06:08:04;44.50;;;25.48;;
52414;SDS011;38340;52.964;6.086;2024-02-15T06:10:30;42.75;;;25.17;;
52414;SDS011;38340;52.964;6.086;2024-02-15T06:12:56;38.53;;;24.70;;
52414;SDS011;38340;52.964;6.086;2024-02-15T06:15:24;42.95;;;24.27;;
52414;SDS011;38340;52.964;6.086;2024-02-15T06:17:50;43.15;;;24.02;;
52414;SDS011;38340;52.964;6.086;2024-02-15T06:20:17;39.17;;;23.55;;
52414;SDS011;38340;52.964;6.086;2024-02-15T06:22:45;40.95;;;23.83;;
52414;SDS011;38340;52.964;6.086;2024-02-15T06:25:11;40.17;;;23.17;;
52414;SDS011;38340;52.964;6.086;2024-02-15T06:27:38;38.22;;;23.52;;
52414;SDS011;38340;52.964;6.086;2024-02-15T06:30:08;41.33;;;23.95;;
52414;SDS011;38340;52.964;6.086;2024-02-15T06:32:54;42.35;;;25.33;;
52414;SDS011;38340;52.964;6.086;2024-02-15T06:35:38;38.75;;;23.23;;
52414;SDS011;38340;52.964;6.086;2024-02-15T06:38:23;51.42;;;24.52;;
52414;SDS011;38340;52.964;6.086;2024-02-15T06:43:34;45.40;;;23.35;;
52414;SDS011;38340;52.964;6.086;2024-02-15T06:46:01;39.90;;;23.05;;
52414;SDS011;38340;52.964;6.086;2024-02-15T06:48:27;41.53;;;22.67;;
52414;SDS011;38340;52.964;6.086;2024-02-15T06:50:53;37.20;;;24.48;;
52414;SDS011;38340;52.964;6.086;2024-02-15T06:53:19;41.03;;;22.85;;
52414;SDS011;38340;52.964;6.086;2024-02-15T06:55:48;39.00;;;23.02;;
52414;SDS011;38340;52.964;6.086;2024-02-15T06:58:15;44.53;;;23.45;;
52414;SDS011;38340;52.964;6.086;2024-02-15T07:00:45;45.28;;;23.35;;
52414;SDS011;38340;52.964;6.086;2024-02-15T07:03:11;41.97;;;23.25;;
52414;SDS011;38340;52.964;6.086;2024-02-15T07:05:37;45.28;;;22.25;;
52414;SDS011;38340;52.964;6.086;2024-02-15T07:08:09;37.60;;;21.83;;
52414;SDS011;38340;52.964;6.086;2024-02-15T07:10:40;43.38;;;22.33;;
52414;SDS011;38340;52.964;6.086;2024-02-15T07:13:06;39.60;;;21.88;;
52414;SDS011;38340;52.964;6.086;2024-02-15T07:15:33;39.50;;;22.55;;
52414;SDS011;38340;52.964;6.086;2024-02-15T07:18:03;36.20;;;21.48;;
52414;SDS011;38340;52.964;6.086;2024-02-15T07:20:31;128.90;;;28.98;;
52414;SDS011;38340;52.964;6.086;2024-02-15T07:22:57;37.97;;;21.38;;
52414;SDS011;38340;52.964;6.086;2024-02-15T07:25:23;38.67;;;21.27;;
52414;SDS011;38340;52.964;6.086;2024-02-15T07:27:49;57.10;;;22.63;;
52414;SDS011;38340;52.964;6.086;2024-02-15T07:30:15;46.00;;;22.45;;
52414;SDS011;38340;52.964;6.086;2024-02-15T07:32:40;40.17;;;22.02;;
52414;SDS011;38340;52.964;6.086;2024-02-15T07:35:06;36.42;;;22.08;;
52414;SDS011;38340;52.964;6.086;2024-02-15T07:37:33;38.25;;;21.23;;
52414;SDS011;38340;52.964;6.086;2024-02-15T07:39:59;42.72;;;21.65;;
52414;SDS011;38340;52.964;6.086;2024-02-15T07:42:25;37.75;;;20.77;;
52414;SDS011;38340;52.964;6.086;2024-02-15T07:44:53;36.58;;;21.17;;
52414;SDS011;38340;52.964;6.086;2024-02-15T07:47:19;36.28;;;20.40;;
52414;SDS011;38340;52.964;6.086;2024-02-15T07:49:49;33.47;;;20.13;;
52414;SDS011;38340;52.964;6.086;2024-02-15T07:52:15;30.63;;;19.13;;
52414;SDS011;38340;52.964;6.086;2024-02-15T07:54:41;30.00;;;19.25;;
52414;SDS011;38340;52.964;6.086;2024-02-15T07:57:06;33.30;;;20.15;;
52414;SDS011;38340;52.964;6.086;2024-02-15T07:59:34;40.25;;;20.00;;
52414;SDS011;38340;52.964;6.086;2024-02-15T08:02:01;30.52;;;18.67;;
52414;SDS011;38340;52.964;6.086;2024-02-15T08:04:26;34.63;;;20.10;;
52414;SDS011;38340;52.964;6.086;2024-02-15T08:06:53;30.50;;;19.55;;
52414;SDS011;38340;52.964;6.086;2024-02-15T08:09:20;31.20;;;20.08;;
52414;SDS011;38340;52.964;6.086;2024-02-15T08:11:49;32.63;;;20.45;;
52414;SDS011;38340;52.964;6.086;2024-02-15T08:14:15;28.02;;;19.00;;
52414;SDS011;38340;52.964;6.086;2024-02-15T08:16:40;35.05;;;20.88;;
52414;SDS011;38340;52.964;6.086;2024-02-15T08:19:06;36.50;;;20.35;;
52414;SDS011;38340;52.964;6.086;2024-02-15T08:21:32;34.72;;;21.02;;
52414;SDS011;38340;52.964;6.086;2024-02-15T08:24:04;32.42;;;20.20;;
52414;SDS011;38340;52.964;6.086;2024-02-15T08:26:35;35.20;;;20.65;;
52414;SDS011;38340;52.964;6.086;2024-02-15T08:29:03;30.95;;;20.05;;
52414;SDS011;38340;52.964;6.086;2024-02-15T08:31:28;37.58;;;21.25;;
52414;SDS011;38340;52.964;6.086;2024-02-15T08:33:59;33.15;;;19.67;;
52414;SDS011;38340;52.964;6.086;2024-02-15T08:36:25;33.58;;;20.73;;
52414;SDS011;38340;52.964;6.086;2024-02-15T08:38:51;39.45;;;21.45;;
52414;SDS011;38340;52.964;6.086;2024-02-15T08:41:17;34.88;;;21.42;;
52414;SDS011;38340;52.964;6.086;2024-02-15T08:43:43;34.85;;;21.25;;
52414;SDS011;38340;52.964;6.086;2024-02-15T08:46:11;33.67;;;20.48;;
52414;SDS011;38340;52.964;6.086;2024-02-15T08:48:37;35.60;;;20.52;;
52414;SDS011;38340;52.964;6.086;2024-02-15T08:51:03;34.47;;;20.25;;
52414;SDS011;38340;52.964;6.086;2024-02-15T08:53:31;31.27;;;20.92;;
52414;SDS011;38340;52.964;6.086;2024-02-15T08:55:57;35.30;;;21.23;;
52414;SDS011;38340;52.964;6.086;2024-02-15T08:58:23;28.33;;;19.77;;
52414;SDS011;38340;52.964;6.086;2024-02-15T09:00:48;32.03;;;20.45;;
52414;SDS011;38340;52.964;6.086;2024-02-15T09:03:14;28.35;;;19.52;;
52414;SDS011;38340;52.964;6.086;2024-02-15T09:05:40;25.73;;;18.35;;
52414;SDS011;38340;52.964;6.086;2024-02-15T09:08:06;30.08;;;19.02;;
52414;SDS011;38340;52.964;6.086;2024-02-15T09:10:32;27.55;;;18.98;;
52414;SDS011;38340;52.964;6.086;2024-02-15T09:12:58;31.05;;;20.15;;
52414;SDS011;38340;52.964;6.086;2024-02-15T09:15:24;27.67;;;17.88;;
52414;SDS011;38340;52.964;6.086;2024-02-15T09:17:50;30.20;;;18.60;;
52414;SDS011;38340;52.964;6.086;2024-02-15T09:20:16;29.05;;;17.88;;
52414;SDS011;38340;52.964;6.086;2024-02-15T09:22:48;28.77;;;17.42;;
52414;SDS011;38340;52.964;6.086;2024-02-15T09:25:16;26.90;;;16.95;;
52414;SDS011;38340;52.964;6.086;2024-02-15T09:27:42;23.85;;;17.48;;
52414;SDS011;38340;52.964;6.086;2024-02-15T09:30:08;25.13;;;17.75;;
52414;SDS011;38340;52.964;6.086;2024-02-15T09:32:38;28.70;;;18.67;;
52414;SDS011;38340;52.964;6.086;2024-02-15T09:35:04;45.30;;;19.35;;
52414;SDS011;38340;52.964;6.086;2024-02-15T09:37:37;26.70;;;15.98;;
52414;SDS011;38340;52.964;6.086;2024-02-15T09:40:09;25.67;;;17.60;;
52414;SDS011;38340;52.964;6.086;2024-02-15T09:42:37;24.60;;;15.65;;
52414;SDS011;38340;52.964;6.086;2024-02-15T09:45:04;24.92;;;16.50;;
52414;SDS011;38340;52.964;6.086;2024-02-15T09:47:33;24.17;;;15.52;;
52414;SDS011;38340;52.964;6.086;2024-02-15T09:50:06;23.50;;;15.73;;
52414;SDS011;38340;52.964;6.086;2024-02-15T09:52:39;20.92;;;15.25;;
52414;SDS011;38340;52.964;6.086;2024-02-15T09:55:09;19.58;;;14.90;;
52414;SDS011;38340;52.964;6.086;2024-02-15T09:57:39;19.38;;;14.02;;
52414;SDS011;38340;52.964;6.086;2024-02-15T10:00:10;20.35;;;14.15;;
52414;SDS011;38340;52.964;6.086;2024-02-15T10:02:57;19.23;;;13.70;;
52414;SDS011;38340;52.964;6.086;2024-02-15T10:05:26;19.52;;;13.82;;
52414;SDS011;38340;52.964;6.086;2024-02-15T10:07:52;19.85;;;13.18;;
52414;SDS011;38340;52.964;6.086;2024-02-15T10:10:21;20.42;;;13.13;;
52414;SDS011;38340;52.964;6.086;2024-02-15T10:12:55;17.63;;;12.68;;
52414;SDS011;38340;52.964;6.086;2024-02-15T10:17:56;20.02;;;12.88;;
52414;SDS011;38340;52.964;6.086;2024-02-15T10:20:23;15.75;;;11.75;;
52414;SDS011;38340;52.964;6.086;2024-02-15T10:23:13;16.77;;;12.45;;
52414;SDS011;38340;52.964;6.086;2024-02-15T10:25:42;16.77;;;12.02;;
52414;SDS011;38340;52.964;6.086;2024-02-15T10:28:11;14.18;;;10.73;;
52414;SDS011;38340;52.964;6.086;2024-02-15T10:30:43;14.55;;;11.48;;
52414;SDS011;38340;52.964;6.086;2024-02-15T10:33:10;15.80;;;11.40;;
52414;SDS011;38340;52.964;6.086;2024-02-15T10:35:47;15.13;;;11.55;;
52414;SDS011;38340;52.964;6.086;2024-02-15T10:38:12;13.50;;;10.63;;
52414;SDS011;38340;52.964;6.086;2024-02-15T10:40:38;14.13;;;10.98;;
52414;SDS011;38340;52.964;6.086;2024-02-15T10:43:09;17.73;;;11.63;;
52414;SDS011;38340;52.964;6.086;2024-02-15T10:45:38;12.57;;;10.45;;
52414;SDS011;38340;52.964;6.086;2024-02-15T10:48:07;14.45;;;11.05;;
52414;SDS011;38340;52.964;6.086;2024-02-15T10:50:36;14.50;;;10.80;;
52414;SDS011;38340;52.964;6.086;2024-02-15T10:53:09;12.57;;;10.18;;
52414;SDS011;38340;52.964;6.086;2024-02-15T10:55:52;14.80;;;10.52;;
52414;SDS011;38340;52.964;6.086;2024-02-15T10:58:24;14.45;;;10.48;;
52414;SDS011;38340;52.964;6.086;2024-02-15T11:00:56;14.52;;;10.88;;
52414;SDS011;38340;52.964;6.086;2024-02-15T11:03:32;11.43;;;10.00;;
52414;SDS011;38340;52.964;6.086;2024-02-15T11:06:02;13.55;;;10.48;;
52414;SDS011;38340;52.964;6.086;2024-02-15T11:08:31;12.75;;;9.63;;
52414;SDS011;38340;52.964;6.086;2024-02-15T11:10:57;14.20;;;10.00;;
52414;SDS011;38340;52.964;6.086;2024-02-15T11:13:24;12.52;;;10.27;;
52414;SDS011;38340;52.964;6.086;2024-02-15T11:15:50;12.65;;;10.20;;
52414;SDS011;38340;52.964;6.086;2024-02-15T11:21:52;12.20;;;9.70;;
52414;SDS011;38340;52.964;6.086;2024-02-15T11:24:27;10.75;;;9.25;;
52414;SDS011;38340;52.964;6.086;2024-02-15T11:27:03;11.23;;;10.02;;
52414;SDS011;38340;52.964;6.086;2024-02-15T11:35:20;14.15;;;10.13;;
52414;SDS011;38340;52.964;6.086;2024-02-15T11:42:53;13.40;;;11.75;;
52414;SDS011;38340;52.964;6.086;2024-02-15T11:45:27;16.02;;;11.45;;
52414;SDS011;38340;52.964;6.086;2024-02-15T11:48:02;15.60;;;11.77;;
52414;SDS011;38340;52.964;6.086;2024-02-15T11:50:33;17.30;;;13.38;;
52414;SDS011;38340;52.964;6.086;2024-02-15T11:53:06;17.65;;;13.80;;
52414;SDS011;38340;52.964;6.086;2024-02-15T11:55:38;20.50;;;14.40;;
52414;SDS011;38340;52.964;6.086;2024-02-15T11:58:06;22.27;;;15.48;;
52414;SDS011;38340;52.964;6.086;2024-02-15T12:00:33;20.60;;;15.38;;
52414;SDS011;38340;52.964;6.086;2024-02-15T12:03:18;19.35;;;13.95;;
52414;SDS011;38340;52.964;6.086;2024-02-15T12:06:03;23.80;;;15.18;;
52414;SDS011;38340;52.964;6.086;2024-02-15T12:08:48;23.45;;;15.85;;
52414;SDS011;38340;52.964;6.086;2024-02-15T12:14:17;21.77;;;15.95;;
52414;SDS011;38340;52.964;6.086;2024-02-15T12:17:02;21.83;;;16.50;;
52414;SDS011;38340;52.964;6.086;2024-02-15T12:19:48;22.42;;;14.98;;
52414;SDS011;38340;52.964;6.086;2024-02-15T12:22:20;23.50;;;16.23;;
52414;SDS011;38340;52.964;6.086;2024-02-15T12:24:58;21.05;;;15.35;;
52414;SDS011;38340;52.964;6.086;2024-02-15T12:27:25;22.40;;;15.57;;
52414;SDS011;38340;52.964;6.086;2024-02-15T12:29:56;24.48;;;15.73;;
52414;SDS011;38340;52.964;6.086;2024-02-15T12:32:23;23.33;;;16.20;;
52414;SDS011;38340;52.964;6.086;2024-02-15T12:34:50;23.58;;;16.05;;
52414;SDS011;38340;52.964;6.086;2024-02-15T12:37:20;22.92;;;17.00;;
52414;SDS011;38340;52.964;6.086;2024-02-15T12:39:47;23.83;;;16.02;;
52414;SDS011;38340;52.964;6.086;2024-02-15T12:42:14;26.25;;;17.50;;
52414;SDS011;38340;52.964;6.086;2024-02-15T12:44:43;27.80;;;17.77;;
52414;SDS011;38340;52.964;6.086;2024-02-15T12:47:18;22.77;;;16.50;;
52414;SDS011;38340;52.964;6.086;2024-02-15T12:49:50;25.30;;;15.57;;
52414;SDS011;38340;52.964;6.086;2024-02-15T12:52:58;27.55;;;16.80;;
52414;SDS011;38340;52.964;6.086;2024-02-15T12:55:18;21.88;;;15.80;;
52414;SDS011;38340;52.964;6.086;2024-02-15T12:57:47;23.15;;;16.27;;
52414;SDS011;38340;52.964;6.086;2024-02-15T13:02:49;27.52;;;17.38;;
52414;SDS011;38340;52.964;6.086;2024-02-15T13:05:16;28.73;;;17.15;;
52414;SDS011;38340;52.964;6.086;2024-02-15T13:07:50;25.50;;;17.67;;
52414;SDS011;38340;52.964;6.086;2024-02-15T13:10:16;24.77;;;17.02;;
52414;SDS011;38340;52.964;6.086;2024-02-15T13:12:42;22.55;;;16.08;;
52414;SDS011;38340;52.964;6.086;2024-02-15T13:15:12;23.60;;;16.00;;
52414;SDS011;38340;52.964;6.086;2024-02-15T13:17:52;23.13;;;16.30;;
52414;SDS011;38340;52.964;6.086;2024-02-15T13:20:22;20.02;;;15.68;;
52414;SDS011;38340;52.964;6.086;2024-02-15T13:22:58;24.75;;;15.80;;
52414;SDS011;38340;52.964;6.086;2024-02-15T13:25:27;23.52;;;16.58;;
52414;SDS011;38340;52.964;6.086;2024-02-15T13:27:55;27.58;;;17.17;;
52414;SDS011;38340;52.964;6.086;2024-02-15T13:30:22;25.00;;;16.63;;
52414;SDS011;38340;52.964;6.086;2024-02-15T13:32:52;23.70;;;15.10;;
52414;SDS011;38340;52.964;6.086;2024-02-15T13:35:19;22.65;;;16.10;;
52414;SDS011;38340;52.964;6.086;2024-02-15T13:40:15;30.17;;;16.73;;
52414;SDS011;38340;52.964;6.086;2024-02-15T13:42:44;22.75;;;15.57;;
52414;SDS011;38340;52.964;6.086;2024-02-15T13:45:30;30.95;;;16.92;;
52414;SDS011;38340;52.964;6.086;2024-02-15T13:48:00;27.92;;;16.52;;
52414;SDS011;38340;52.964;6.086;2024-02-15T13:50:28;23.33;;;15.73;;
52414;SDS011;38340;52.964;6.086;2024-02-15T13:52:54;29.55;;;16.45;;
52414;SDS011;38340;52.964;6.086;2024-02-15T13:55:20;23.65;;;15.95;;
52414;SDS011;38340;52.964;6.086;2024-02-15T13:57:46;25.83;;;15.90;;
52414;SDS011;38340;52.964;6.086;2024-02-15T14:00:13;25.58;;;17.15;;
52414;SDS011;38340;52.964;6.086;2024-02-15T14:02:55;27.20;;;16.15;;
52414;SDS011;38340;52.964;6.086;2024-02-15T14:05:23;25.63;;;15.93;;
52414;SDS011;38340;52.964;6.086;2024-02-15T14:07:51;33.70;;;16.42;;
52414;SDS011;38340;52.964;6.086;2024-02-15T14:10:23;28.10;;;16.38;;
52414;SDS011;38340;52.964;6.086;2024-02-15T14:12:50;27.77;;;16.48;;
52414;SDS011;38340;52.964;6.086;2024-02-15T14:15:18;24.17;;;15.30;;
52414;SDS011;38340;52.964;6.086;2024-02-15T14:17:44;24.63;;;16.25;;
52414;SDS011;38340;52.964;6.086;2024-02-15T14:20:10;27.77;;;15.02;;
52414;SDS011;38340;52.964;6.086;2024-02-15T14:22:40;28.85;;;16.38;;
52414;SDS011;38340;52.964;6.086;2024-02-15T14:25:23;21.13;;;15.10;;
52414;SDS011;38340;52.964;6.086;2024-02-15T14:27:50;23.48;;;14.90;;
52414;SDS011;38340;52.964;6.086;2024-02-15T14:30:17;21.77;;;15.38;;
52414;SDS011;38340;52.964;6.086;2024-02-15T14:33:03;20.00;;;14.77;;
52414;SDS011;38340;52.964;6.086;2024-02-15T14:35:32;19.70;;;14.75;;
52414;SDS011;38340;52.964;6.086;2024-02-15T14:40:36;30.60;;;14.27;;
52414;SDS011;38340;52.964;6.086;2024-02-15T14:43:04;21.75;;;15.10;;
52414;SDS011;38340;52.964;6.086;2024-02-15T14:45:33;24.20;;;15.05;;
52414;SDS011;38340;52.964;6.086;2024-02-15T14:48:00;22.90;;;14.55;;
52414;SDS011;38340;52.964;6.086;2024-02-15T14:50:26;23.08;;;14.95;;
52414;SDS011;38340;52.964;6.086;2024-02-15T14:52:52;20.05;;;14.57;;
52414;SDS011;38340;52.964;6.086;2024-02-15T14:55:21;23.15;;;14.13;;
52414;SDS011;38340;52.964;6.086;2024-02-15T14:57:47;21.38;;;14.70;;